Jamaica, IA (50128)

10:59 AM CDT on April 25, 2015 (GMT -0500)
Perry Municipal | | Change Station
CLOSE
Current Station
Airport
Location: Perry,
Elevation: 1014 ft
Nearby Weather Stations

Elev 1014 ft 41.83 °N, 94.16 °W | Updated 24 minutes ago

Overcast
Overcast
45 °F
Feels Like 38 °F
N
15
Wind Variable Wind from ENE
Gusts 22 mph

Today
High -- | Low -- °F
--% Chance of Precip.
Yesterday
High -- | Low -- °F
Precip. -- in
6:22 AM 8:09 PM
Waxing Crescent, 47% visible
Pressure 29.64 in
Visibility 5.0 miles
Clouds Overcast 900 ft
Windchill 38 °F
Dew Point 43 °F
Humidity 94%
Rainfall 0.87 in
Snow Depth Not available.
UV 2 out of 12
Pollen 10.30 out of 12
Air Quality Not available.
Flu Activity Local Activity
METAR KPRO 251535Z AUTO 07013G19KT 5SM BR OVC009 07/06 A2964 RMK AO2 T00720063

More Conditions Fewer Conditions

Pressure 29.64 in
Visibility 5.0 miles
Clouds Overcast 900 ft
Windchill 38 °F
Dew Point 43 °F
Humidity 94%
Rainfall 0.87 in
Snow Depth Not available.
UV 2 out of 12
Pollen 10.30 out of 12
Air Quality Not available.
Flu Activity Local Activity
METAR KPRO 251535Z AUTO 07013G19KT 5SM BR OVC009 07/06 A2964 RMK AO2 T00720063

More Conditions Fewer Conditions

10-Day Weather Forecast

Almanac

Astronomy

Apr. 25, 2015 Rise Set
Actual Time
Civil Twilight
Nautical Twilight
Astronomical Twilight
Moon
Length of Visible Light
Length of Day
Tomorrow will be .
, % of the Moon is Illuminated

Today's Extremes

State Highs State Lows

Community

WunderPhotos

Upload Photos

1,816,719 photos uploaded!

WunderBlogs® & News

Nearby

Air Quality

  Air Quality AQ Index Pollutant
Not available.

Snow Depth

Station Depth Elevation

Earthquake Activity

City Distance Mag. Time & Date
Minimum magnitude displayed is 2.5.

Coastal Water Temperatures

Place Temperature

Stations

Nearby Weather Stations

Station Location Temp. Windchill Dew Point Humidity Wind Precip. Elev Updated Type